sensor_id;sensor_type;location;lat;lon;timestamp;P1;durP1;ratioP1;P2;durP2;ratioP2
30970;SDS011;17651;52.262;10.498;2023-10-09T00:01:52;2.38;;;1.67;;
30970;SDS011;17651;52.262;10.498;2023-10-09T00:04:03;3.15;;;1.88;;
30970;SDS011;17651;52.262;10.498;2023-10-09T00:06:23;7.10;;;1.90;;
30970;SDS011;17651;52.262;10.498;2023-10-09T00:08:41;7.13;;;2.17;;
30970;SDS011;17651;52.262;10.498;2023-10-09T00:10:59;2.35;;;1.83;;
30970;SDS011;17651;52.262;10.498;2023-10-09T00:13:29;2.33;;;1.67;;
30970;SDS011;17651;52.262;10.498;2023-10-09T00:15:41;2.88;;;2.10;;
30970;SDS011;17651;52.262;10.498;2023-10-09T00:17:53;3.25;;;1.90;;
30970;SDS011;17651;52.262;10.498;2023-10-09T00:20:08;4.22;;;2.00;;
30970;SDS011;17651;52.262;10.498;2023-10-09T00:22:27;6.68;;;2.25;;
30970;SDS011;17651;52.262;10.498;2023-10-09T00:24:40;3.08;;;1.88;;
30970;SDS011;17651;52.262;10.498;2023-10-09T00:26:56;2.95;;;1.77;;
30970;SDS011;17651;52.262;10.498;2023-10-09T00:29:23;3.65;;;1.80;;
30970;SDS011;17651;52.262;10.498;2023-10-09T00:31:37;4.53;;;2.00;;
30970;SDS011;17651;52.262;10.498;2023-10-09T00:33:49;4.53;;;2.13;;
30970;SDS011;17651;52.262;10.498;2023-10-09T00:36:03;4.05;;;1.70;;
30970;SDS011;17651;52.262;10.498;2023-10-09T00:38:21;5.75;;;2.15;;
30970;SDS011;17651;52.262;10.498;2023-10-09T00:40:34;3.15;;;1.50;;
30970;SDS011;17651;52.262;10.498;2023-10-09T00:42:55;6.75;;;2.33;;
30970;SDS011;17651;52.262;10.498;2023-10-09T00:45:06;2.58;;;1.80;;
30970;SDS011;17651;52.262;10.498;2023-10-09T00:47:20;3.38;;;1.73;;
30970;SDS011;17651;52.262;10.498;2023-10-09T00:49:32;3.05;;;1.73;;
30970;SDS011;17651;52.262;10.498;2023-10-09T00:51:44;2.97;;;2.08;;
30970;SDS011;17651;52.262;10.498;2023-10-09T00:54:06;2.40;;;1.73;;
30970;SDS011;17651;52.262;10.498;2023-10-09T00:56:23;3.88;;;1.95;;
30970;SDS011;17651;52.262;10.498;2023-10-09T00:58:35;4.05;;;2.00;;
30970;SDS011;17651;52.262;10.498;2023-10-09T01:00:46;2.92;;;1.80;;
30970;SDS011;17651;52.262;10.498;2023-10-09T01:03:01;2.83;;;1.83;;
30970;SDS011;17651;52.262;10.498;2023-10-09T01:05:33;7.32;;;3.33;;
30970;SDS011;17651;52.262;10.498;2023-10-09T01:07:47;3.97;;;2.10;;
30970;SDS011;17651;52.262;10.498;2023-10-09T01:09:58;3.53;;;1.85;;
30970;SDS011;17651;52.262;10.498;2023-10-09T01:12:20;3.97;;;1.90;;
30970;SDS011;17651;52.262;10.498;2023-10-09T01:14:31;3.80;;;2.83;;
30970;SDS011;17651;52.262;10.498;2023-10-09T01:19:04;2.90;;;1.83;;
30970;SDS011;17651;52.262;10.498;2023-10-09T01:21:23;4.30;;;1.88;;
30970;SDS011;17651;52.262;10.498;2023-10-09T01:23:36;3.00;;;1.80;;
30970;SDS011;17651;52.262;10.498;2023-10-09T01:26:07;4.57;;;1.42;;
30970;SDS011;17651;52.262;10.498;2023-10-09T01:28:18;3.25;;;1.60;;
30970;SDS011;17651;52.262;10.498;2023-10-09T01:30:29;3.15;;;1.60;;
30970;SDS011;17651;52.262;10.498;2023-10-09T01:32:43;3.60;;;2.08;;
30970;SDS011;17651;52.262;10.498;2023-10-09T01:34:56;3.83;;;1.60;;
30970;SDS011;17651;52.262;10.498;2023-10-09T01:37:09;3.20;;;1.52;;
30970;SDS011;17651;52.262;10.498;2023-10-09T01:39:32;2.15;;;1.52;;
30970;SDS011;17651;52.262;10.498;2023-10-09T01:41:50;3.38;;;1.90;;
30970;SDS011;17651;52.262;10.498;2023-10-09T01:44:15;2.63;;;1.83;;
30970;SDS011;17651;52.262;10.498;2023-10-09T01:46:27;2.60;;;1.58;;
30970;SDS011;17651;52.262;10.498;2023-10-09T01:48:38;4.00;;;1.77;;
30970;SDS011;17651;52.262;10.498;2023-10-09T01:50:50;4.60;;;1.50;;
30970;SDS011;17651;52.262;10.498;2023-10-09T01:53:01;2.78;;;1.52;;
30970;SDS011;17651;52.262;10.498;2023-10-09T01:55:13;2.70;;;1.90;;
30970;SDS011;17651;52.262;10.498;2023-10-09T01:57:43;2.70;;;1.73;;
30970;SDS011;17651;52.262;10.498;2023-10-09T01:59:55;3.70;;;1.35;;
30970;SDS011;17651;52.262;10.498;2023-10-09T02:02:08;3.10;;;1.50;;
30970;SDS011;17651;52.262;10.498;2023-10-09T02:04:45;3.30;;;1.85;;
30970;SDS011;17651;52.262;10.498;2023-10-09T02:06:56;2.47;;;1.52;;
30970;SDS011;17651;52.262;10.498;2023-10-09T02:09:07;3.80;;;1.50;;
30970;SDS011;17651;52.262;10.498;2023-10-09T02:11:18;3.90;;;1.77;;
30970;SDS011;17651;52.262;10.498;2023-10-09T02:13:34;3.33;;;2.00;;
30970;SDS011;17651;52.262;10.498;2023-10-09T02:15:45;3.92;;;1.55;;
30970;SDS011;17651;52.262;10.498;2023-10-09T02:18:01;2.60;;;1.40;;
30970;SDS011;17651;52.262;10.498;2023-10-09T02:20:26;3.17;;;1.95;;
30970;SDS011;17651;52.262;10.498;2023-10-09T02:22:39;5.15;;;1.65;;
30970;SDS011;17651;52.262;10.498;2023-10-09T02:24:50;5.53;;;1.80;;
30970;SDS011;17651;52.262;10.498;2023-10-09T02:27:08;3.90;;;1.70;;
30970;SDS011;17651;52.262;10.498;2023-10-09T02:29:21;4.40;;;1.70;;
30970;SDS011;17651;52.262;10.498;2023-10-09T02:31:35;5.22;;;2.30;;
30970;SDS011;17651;52.262;10.498;2023-10-09T02:33:50;4.25;;;1.70;;
30970;SDS011;17651;52.262;10.498;2023-10-09T02:36:08;6.07;;;2.20;;
30970;SDS011;17651;52.262;10.498;2023-10-09T02:38:20;3.63;;;1.98;;
30970;SDS011;17651;52.262;10.498;2023-10-09T02:40:34;5.35;;;2.40;;
30970;SDS011;17651;52.262;10.498;2023-10-09T02:42:51;3.33;;;1.85;;
30970;SDS011;17651;52.262;10.498;2023-10-09T02:45:03;5.65;;;1.83;;
30970;SDS011;17651;52.262;10.498;2023-10-09T02:47:21;3.40;;;1.70;;
30970;SDS011;17651;52.262;10.498;2023-10-09T02:49:39;4.33;;;1.80;;
30970;SDS011;17651;52.262;10.498;2023-10-09T02:51:50;3.90;;;2.40;;
30970;SDS011;17651;52.262;10.498;2023-10-09T02:54:04;4.63;;;1.80;;
30970;SDS011;17651;52.262;10.498;2023-10-09T02:56:28;2.90;;;1.70;;
30970;SDS011;17651;52.262;10.498;2023-10-09T02:58:52;6.75;;;2.20;;
30970;SDS011;17651;52.262;10.498;2023-10-09T03:01:03;3.42;;;2.08;;
30970;SDS011;17651;52.262;10.498;2023-10-09T03:03:19;5.85;;;2.00;;
30970;SDS011;17651;52.262;10.498;2023-10-09T03:05:31;2.67;;;1.90;;
30970;SDS011;17651;52.262;10.498;2023-10-09T03:07:42;5.05;;;2.28;;
30970;SDS011;17651;52.262;10.498;2023-10-09T03:09:54;4.82;;;2.20;;
30970;SDS011;17651;52.262;10.498;2023-10-09T03:12:05;4.32;;;2.20;;
30970;SDS011;17651;52.262;10.498;2023-10-09T03:14:21;4.68;;;2.13;;
30970;SDS011;17651;52.262;10.498;2023-10-09T03:16:36;3.92;;;2.10;;
30970;SDS011;17651;52.262;10.498;2023-10-09T03:18:52;5.50;;;1.85;;
30970;SDS011;17651;52.262;10.498;2023-10-09T03:21:03;4.82;;;2.22;;
30970;SDS011;17651;52.262;10.498;2023-10-09T03:23:14;4.50;;;2.10;;
30970;SDS011;17651;52.262;10.498;2023-10-09T03:25:25;5.10;;;2.10;;
30970;SDS011;17651;52.262;10.498;2023-10-09T03:27:38;8.20;;;1.92;;
30970;SDS011;17651;52.262;10.498;2023-10-09T03:29:52;6.18;;;3.25;;
30970;SDS011;17651;52.262;10.498;2023-10-09T03:32:03;6.05;;;2.17;;
30970;SDS011;17651;52.262;10.498;2023-10-09T03:34:16;4.32;;;2.10;;
30970;SDS011;17651;52.262;10.498;2023-10-09T03:36:28;4.38;;;2.00;;
30970;SDS011;17651;52.262;10.498;2023-10-09T03:38:41;7.32;;;2.65;;
30970;SDS011;17651;52.262;10.498;2023-10-09T03:40:52;2.78;;;1.98;;
30970;SDS011;17651;52.262;10.498;2023-10-09T03:43:03;5.68;;;2.25;;
30970;SDS011;17651;52.262;10.498;2023-10-09T03:45:15;6.80;;;2.85;;
30970;SDS011;17651;52.262;10.498;2023-10-09T03:47:34;6.05;;;1.90;;
30970;SDS011;17651;52.262;10.498;2023-10-09T03:49:45;4.10;;;2.10;;
30970;SDS011;17651;52.262;10.498;2023-10-09T03:51:56;3.10;;;2.13;;
30970;SDS011;17651;52.262;10.498;2023-10-09T03:54:09;3.33;;;2.20;;
30970;SDS011;17651;52.262;10.498;2023-10-09T03:56:20;2.90;;;2.00;;
30970;SDS011;17651;52.262;10.498;2023-10-09T03:58:31;4.55;;;2.08;;
30970;SDS011;17651;52.262;10.498;2023-10-09T04:00:44;5.78;;;2.25;;
30970;SDS011;17651;52.262;10.498;2023-10-09T04:02:56;8.13;;;2.30;;
30970;SDS011;17651;52.262;10.498;2023-10-09T04:05:07;4.60;;;2.38;;
30970;SDS011;17651;52.262;10.498;2023-10-09T04:07:18;3.75;;;2.05;;
30970;SDS011;17651;52.262;10.498;2023-10-09T04:09:31;3.22;;;2.05;;
30970;SDS011;17651;52.262;10.498;2023-10-09T04:11:50;3.58;;;2.40;;
30970;SDS011;17651;52.262;10.498;2023-10-09T04:14:19;4.53;;;2.13;;
30970;SDS011;17651;52.262;10.498;2023-10-09T04:16:43;5.40;;;2.10;;
30970;SDS011;17651;52.262;10.498;2023-10-09T04:19:13;6.97;;;2.08;;
30970;SDS011;17651;52.262;10.498;2023-10-09T04:21:25;5.32;;;2.38;;
30970;SDS011;17651;52.262;10.498;2023-10-09T04:23:45;3.25;;;2.05;;
30970;SDS011;17651;52.262;10.498;2023-10-09T04:26:15;6.25;;;2.38;;
30970;SDS011;17651;52.262;10.498;2023-10-09T04:28:26;6.45;;;2.60;;
30970;SDS011;17651;52.262;10.498;2023-10-09T04:30:40;5.93;;;2.45;;
30970;SDS011;17651;52.262;10.498;2023-10-09T04:32:53;4.05;;;2.60;;
30970;SDS011;17651;52.262;10.498;2023-10-09T04:35:10;6.90;;;2.72;;
30970;SDS011;17651;52.262;10.498;2023-10-09T04:37:33;6.03;;;2.85;;
30970;SDS011;17651;52.262;10.498;2023-10-09T04:39:48;4.75;;;2.53;;
30970;SDS011;17651;52.262;10.498;2023-10-09T04:42:11;4.78;;;3.22;;
30970;SDS011;17651;52.262;10.498;2023-10-09T04:44:33;6.60;;;3.40;;
30970;SDS011;17651;52.262;10.498;2023-10-09T04:46:49;5.45;;;2.88;;
30970;SDS011;17651;52.262;10.498;2023-10-09T04:49:19;5.07;;;3.88;;
30970;SDS011;17651;52.262;10.498;2023-10-09T04:51:39;8.77;;;3.97;;
30970;SDS011;17651;52.262;10.498;2023-10-09T04:54:09;12.32;;;4.88;;
30970;SDS011;17651;52.262;10.498;2023-10-09T04:56:23;8.90;;;4.35;;
30970;SDS011;17651;52.262;10.498;2023-10-09T04:58:34;7.55;;;4.25;;
30970;SDS011;17651;52.262;10.498;2023-10-09T05:00:50;10.43;;;5.72;;
30970;SDS011;17651;52.262;10.498;2023-10-09T05:03:07;10.90;;;5.85;;
30970;SDS011;17651;52.262;10.498;2023-10-09T05:05:22;8.60;;;5.05;;
30970;SDS011;17651;52.262;10.498;2023-10-09T05:08:09;13.15;;;5.53;;
30970;SDS011;17651;52.262;10.498;2023-10-09T05:10:31;15.82;;;5.95;;
30970;SDS011;17651;52.262;10.498;2023-10-09T05:12:42;11.82;;;7.28;;
30970;SDS011;17651;52.262;10.498;2023-10-09T05:15:13;15.95;;;7.03;;
30970;SDS011;17651;52.262;10.498;2023-10-09T05:17:25;13.32;;;6.93;;
30970;SDS011;17651;52.262;10.498;2023-10-09T05:19:36;16.15;;;7.18;;
30970;SDS011;17651;52.262;10.498;2023-10-09T05:22:04;12.90;;;7.10;;
30970;SDS011;17651;52.262;10.498;2023-10-09T05:24:17;15.40;;;7.60;;
30970;SDS011;17651;52.262;10.498;2023-10-09T05:26:29;15.63;;;8.27;;
30970;SDS011;17651;52.262;10.498;2023-10-09T05:28:58;14.10;;;7.90;;
30970;SDS011;17651;52.262;10.498;2023-10-09T05:31:09;18.52;;;8.73;;
30970;SDS011;17651;52.262;10.498;2023-10-09T05:33:26;15.35;;;9.23;;
30970;SDS011;17651;52.262;10.498;2023-10-09T05:35:43;24.30;;;10.30;;
30970;SDS011;17651;52.262;10.498;2023-10-09T05:38:14;20.45;;;9.93;;
30970;SDS011;17651;52.262;10.498;2023-10-09T05:40:33;25.58;;;11.18;;
30970;SDS011;17651;52.262;10.498;2023-10-09T05:42:46;23.05;;;10.82;;
30970;SDS011;17651;52.262;10.498;2023-10-09T05:45:08;22.42;;;11.98;;
30970;SDS011;17651;52.262;10.498;2023-10-09T05:47:28;23.33;;;11.60;;
30970;SDS011;17651;52.262;10.498;2023-10-09T05:49:46;20.98;;;11.02;;
30970;SDS011;17651;52.262;10.498;2023-10-09T05:51:57;23.15;;;11.98;;
30970;SDS011;17651;52.262;10.498;2023-10-09T05:54:28;19.83;;;12.23;;
30970;SDS011;17651;52.262;10.498;2023-10-09T05:56:58;22.73;;;13.32;;
30970;SDS011;17651;52.262;10.498;2023-10-09T05:59:28;26.10;;;12.93;;
30970;SDS011;17651;52.262;10.498;2023-10-09T06:02:05;26.98;;;15.00;;
30970;SDS011;17651;52.262;10.498;2023-10-09T06:04:35;28.35;;;15.30;;
30970;SDS011;17651;52.262;10.498;2023-10-09T06:07:05;29.58;;;16.55;;
30970;SDS011;17651;52.262;10.498;2023-10-09T06:09:23;32.00;;;16.58;;
30970;SDS011;17651;52.262;10.498;2023-10-09T06:14:04;37.67;;;18.58;;
30970;SDS011;17651;52.262;10.498;2023-10-09T06:16:18;38.80;;;20.70;;
30970;SDS011;17651;52.262;10.498;2023-10-09T06:18:51;40.90;;;21.50;;
30970;SDS011;17651;52.262;10.498;2023-10-09T06:21:17;40.22;;;23.38;;
30970;SDS011;17651;52.262;10.498;2023-10-09T06:24:04;44.90;;;23.98;;
30970;SDS011;17651;52.262;10.498;2023-10-09T06:26:21;42.60;;;22.92;;
30970;SDS011;17651;52.262;10.498;2023-10-09T16:21:46;7.40;;;6.57;;
30970;SDS011;17651;52.262;10.498;2023-10-09T16:23:57;12.60;;;9.20;;
30970;SDS011;17651;52.262;10.498;2023-10-09T16:26:09;14.05;;;8.48;;
30970;SDS011;17651;52.262;10.498;2023-10-09T16:41:33;11.98;;;9.40;;
30970;SDS011;17651;52.262;10.498;2023-10-09T16:43:47;14.48;;;9.48;;
